June 27, 2022

Time Code Weather Temp. Visibility Ceiling Wind METAR/SPECI
1:50 am
V
55 °F 6¼ mi+ - 210° 210° 10 kt METAR EGXP 270050Z AUTO 21010KT 9999 // NCD 13/06 Q1011
12:50 am
V
55 °F 6¼ mi+ - 200° 200° 10 kt METAR EGXP 262350Z AUTO 20010KT 9999 // NCD 13/06 Q1011

June 26, 2022

Time Code Weather Temp. Visibility Ceiling Wind METAR/SPECI
11:50 pm
V
57 °F 6¼ mi+ - 200° 200° 11 kt METAR EGXP 262250Z AUTO 20011KT 9999 // NCD 14/06 Q1011
10:50 pm
V
61 °F 6¼ mi+ - 200° 200° 11 kt METAR EGXP 262150Z AUTO 20011KT 9999 // NCD 16/06 Q1011
9:50 pm
V
63 °F 6¼ mi+ - 200° 200° 10 kt METAR EGXP 262050Z AUTO 20010KT 9999 // NCD 17/05 Q1010
8:50 pm
V
64 °F 6¼ mi+ - 200° 200° 11 kt METAR EGXP 261950Z AUTO 20011KT 9999 // NCD 18/05 Q1010
7:50 pm
V
68 °F 6¼ mi+ - 220° 220° 11 kt METAR EGXP 261850Z AUTO 22011KT 9999 // FEW060/// 20/06 Q1009
6:50 pm
V
68 °F 6¼ mi+ - 210° 210° 14 kt METAR EGXP 261750Z 21014KT CAVOK 20/06 Q1009 BLU
5:50 pm
V
68 °F 6¼ mi+ - 220° 220° 15 kt METAR EGXP 261650Z 22015KT CAVOK 20/06 Q1009 BLU
4:50 pm
V
68 °F 6¼ mi+ - 210° 210° 19 kt METAR EGXP 261550Z AUTO 21019KT 9999 // FEW080/// 20/06 Q1009
3:50 pm
V
72 °F 6¼ mi+ - 210° 210° 18 - 29 kt METAR EGXP 261450Z AUTO 21018G29KT 9999 // SCT050/// 22/07 Q1009
1:50 pm
V
68 °F 6¼ mi+ 5,000 ft 200° 200° 20 kt METAR EGXP 261250Z AUTO 20020KT 9999 // BKN050/// 20/07 Q1009
12:50 pm
V
68 °F 6¼ mi+ 4,900 ft 200° 200° 16 - 27 kt METAR EGXP 261150Z AUTO 20016G27KT 9999 // BKN049/// 20/07 Q1008
11:50 am
V
66 °F 6¼ mi+ - 190° 190° 18 kt METAR EGXP 261050Z AUTO 19018KT 9999 // FEW044/// SCT050/// 19/07 Q1009
10:50 am
V
63 °F 6¼ mi+ 4,600 ft 200° 200° 18 kt METAR EGXP 260950Z AUTO 20018KT 9999 // FEW040/// BKN046/// 17/07 Q1009
9:50 am
V
61 °F 6¼ mi+ - 200° 200° 15 kt METAR EGXP 260850Z AUTO 20015KT 9999 // SCT033/// 16/08 Q1009
8:50 am
V
61 °F 6¼ mi+ - 190° 190° 16 kt METAR EGXP 260750Z AUTO 19016KT 9999 // FEW028/// 16/08 Q1008
7:50 am
V
57 °F 6¼ mi+ - 190° 190° 11 kt METAR EGXP 260650Z AUTO 19011KT 9999 // NCD 14/09 Q1008
6:50 am
V
54 °F 6¼ mi+ - 190° 190° 13 kt METAR EGXP 260550Z AUTO 19013KT 9999 // NCD 12/09 Q1008
5:50 am
V
54 °F 6¼ mi+ - 190° 190° 12 kt METAR EGXP 260450Z AUTO 19012KT 9999 // NCD 12/09 Q1008
4:50 am
V
52 °F 6¼ mi+ - 180° 180° 10 kt METAR EGXP 260350Z AUTO 18010KT 9999 // NCD 11/08 Q1008
3:50 am
V
54 °F 6¼ mi+ - 180° 180° 9 kt METAR EGXP 260250Z AUTO 18009KT 9999 // NCD 12/08 Q1007
2:50 am
V
54 °F 6¼ mi+ - 180° 180° 6 kt METAR EGXP 260150Z AUTO 18006KT 9999 // NCD 12/09 Q1007
1:50 am
V
55 °F 6¼ mi+ - 190° 190° 9 kt METAR EGXP 260050Z AUTO 19009KT 9999 // NCD 13/09 Q1007
12:50 am
V
55 °F 6¼ mi+ - 190° 190° 11 kt METAR EGXP 252350Z AUTO 19011KT 9999 // SCT150/// 13/09 Q1007

June 25, 2022

Time Code Weather Temp. Visibility Ceiling Wind METAR/SPECI
11:50 pm
V
57 °F 6¼ mi+ 14,000 ft 180° 180° 10 kt METAR EGXP 252250Z AUTO 18010KT 9999 // BKN140/// 14/08 Q1007
10:50 pm
V
59 °F 6¼ mi+ 7,000 ft 180° 180° 10 kt METAR EGXP 252150Z AUTO 18010KT 9999 // BKN070/// 15/07 Q1007
9:50 pm
V
63 °F 6¼ mi+ 5,000 ft 190° 190° 12 kt METAR EGXP 252050Z AUTO 19012KT 9999 // OVC050/// 17/07 Q1006
8:50 pm
V
64 °F 6¼ mi+ - 190° 190° 11 kt METAR EGXP 251950Z AUTO 19011KT 9999 // SCT050/// 18/06 Q1006
7:50 pm
V
66 °F 6¼ mi+ - 180° 180° 12 kt METAR EGXP 251850Z AUTO 18012KT 9999 // FEW050/// 19/06 Q1005
6:50 pm
V
68 °F 6¼ mi+ - 210° 210° 14 kt METAR EGXP 251750Z 21014KT CAVOK 20/06 Q1005 BLU
5:50 pm
V
68 °F 6¼ mi+ - 210° 210° 12 kt METAR EGXP 251650Z 21012KT CAVOK 20/06 Q1005 BLU
4:50 pm
V
68 °F 6¼ mi+ - 210° 210° 15 kt METAR EGXP 251550Z 21015KT CAVOK 20/05 Q1005 BLU
3:50 pm
V
70 °F 6¼ mi+ - 210° 210° 14 kt METAR EGXP 251450Z 21014KT CAVOK 21/06 Q1005 BLU
2:50 pm
V
70 °F 6¼ mi+ - 180° 180° 14 kt METAR EGXP 251350Z 18014KT CAVOK 21/03 Q1005 BLU
1:50 pm
V
72 °F 6¼ mi+ - 190° 190° 16 kt METAR EGXP 251250Z 19016KT CAVOK 22/06 Q1005 BLU
12:50 pm
V
68 °F 6¼ mi+ - 190° 190° 17 kt METAR EGXP 251150Z 19017KT 9999 FEW047 20/06 Q1005 BLU
11:50 am
V
66 °F 6¼ mi+ 5,000 ft 190° 190° 12 kt METAR EGXP 251050Z 19012KT 9999 FEW042 BKN050 19/07 Q1006 BLU
10:50 am
V
64 °F 6¼ mi+ - 190° 190° 14 kt METAR EGXP 250950Z 19014KT 9999 SCT040 18/07 Q1005 BLU
9:50 am
V
63 °F 6¼ mi+ - 200° 200° 16 kt METAR EGXP 250850Z AUTO 20016KT 9999 // NCD 17/07 Q1005
8:50 am
V
61 °F 6¼ mi+ - 200° 200° 14 kt METAR EGXP 250750Z AUTO 20014KT 9999 // NCD 16/09 Q1005
7:50 am
V
59 °F 6¼ mi+ - 210° 210° 12 kt METAR EGXP 250650Z AUTO 21012KT 9999 // NCD 15/10 Q1005
6:50 am
V
55 °F 6¼ mi+ - 200° 200° 11 kt METAR EGXP 250550Z AUTO 20011KT 9999 // NCD 13/10 Q1004
5:50 am
V
55 °F 6¼ mi+ - 210° 210° 10 kt METAR EGXP 250450Z AUTO 21010KT 9999 // NCD 13/10 Q1003
4:50 am
V
55 °F 6¼ mi+ - 210° 210° 11 kt METAR EGXP 250350Z AUTO 21011KT 9999 // NCD 13/10 Q1003
3:50 am
V
55 °F 6¼ mi+ - 220° 220° 12 kt METAR EGXP 250250Z AUTO 22012KT 9999 // NCD 13/10 Q1002
2:50 am
V
59 °F 6¼ mi+ - 200° 200° 11 kt METAR EGXP 250150Z AUTO 20011KT 9999 // NCD 15/12 Q1001
1:50 am
V
61 °F 6¼ mi+ 4,600 ft 200° 200° 13 kt METAR EGXP 250050Z AUTO 20013KT 9999 // SCT017/// BKN046/// 16/13 Q1001
12:50 am
M
63 °F 6¼ mi+ 2,100 ft 180° 180° 12 kt METAR EGXP 242350Z AUTO 18012KT 9999 // BKN021/// SCT026/// 17/12 Q1001

June 24, 2022

Time Code Weather Temp. Visibility Ceiling Wind METAR/SPECI
11:50 pm
V
63 °F 6¼ mi+ 3,100 ft 170° 170° 13 kt METAR EGXP 242250Z AUTO 17013KT 9999 // BKN031/// BKN100/// 17/11 Q1001
10:50 pm
V
64 °F 6¼ mi+ 14,000 ft 190° 190° 11 kt METAR EGXP 242150Z AUTO 19011KT 9999 // SCT035/// BKN140/// 18/11 Q1001
9:50 pm
V
64 °F 6¼ mi+ 14,000 ft 190° 190° 12 kt METAR EGXP 242050Z AUTO 19012KT 9999 // FEW110/// BKN140/// 18/12 Q1000
8:50 pm
V
66 °F 6¼ mi+ 6,000 ft 190° 190° 11 kt METAR EGXP 241950Z AUTO 19011KT 9999 // BKN060/// 19/12 Q1000
Older data

Download our app

Easy access to all aviation weather on your mobile phone and tablet.
With many features not available on the website, like offline support and a personal airport list.

We and third parties follow your internet behavior on our website with cookies. If you continue, we assume you agree with our cookie policy. Learn more